Time;durP1;ratioP1;P1;durP2;ratioP2;P2;SDS_P1;SDS_P2;PMS_P1;PMS_P2;Temp;Humidity;BMP_temperature;BMP_pressure;BME280_temperature;BME280_humidity;BME280_pressure;Samples;Min_cycle;Max_cycle;Signal;HPM_P1;HPM_P2
2022/06/01 00:00:09;;;;;;;1.27;1.00;;;;;;;16.62;67.00;95443.78;4972070;28;20235;-85
2022/06/01 00:02:35;;;;;;;0.80;0.80;;;;;;;16.59;66.59;95447.63;4974894;28;20243;-86
2022/06/01 00:05:02;;;;;;;0.82;0.82;;;;;;;16.56;66.81;95454.03;4958124;28;20204;-87
2022/06/01 00:07:28;;;;;;;0.90;0.90;;;;;;;16.54;66.42;95447.50;4970575;28;20634;-87
2022/06/01 00:09:55;;;;;;;1.00;1.00;;;;;;;16.51;66.69;95446.13;4966140;28;20284;-88
2022/06/01 00:12:23;;;;;;;0.70;0.70;;;;;;;16.48;66.68;95454.34;4971002;28;20300;-87
2022/06/01 00:14:49;;;;;;;0.80;0.80;;;;;;;16.46;66.55;95447.75;4967015;28;20225;-86
2022/06/01 00:17:17;;;;;;;0.90;0.90;;;;;;;16.31;66.67;95447.31;4962776;28;20731;-86
2022/06/01 00:19:44;;;;;;;0.82;0.82;;;;;;;16.33;66.63;95445.31;4967083;28;20645;-87
2022/06/01 00:22:14;;;;;;;0.80;0.80;;;;;;;16.28;66.90;95445.94;4975767;28;20220;-87
2022/06/01 00:24:41;;;;;;;0.90;0.90;;;;;;;16.30;66.58;95445.75;4972488;28;20752;-88
2022/06/01 00:27:09;;;;;;;0.75;0.73;;;;;;;16.31;66.48;95447.31;4969954;28;20232;-86
2022/06/01 00:29:36;;;;;;;0.90;0.90;;;;;;;16.32;66.83;95443.72;4978237;28;20271;-88
2022/06/01 00:32:04;;;;;;;1.20;0.90;;;;;;;16.33;66.11;95451.31;4972855;28;20247;-87
2022/06/01 00:34:32;;;;;;;0.88;0.88;;;;;;;16.29;66.40;95447.53;4973245;28;20251;-85
2022/06/01 00:36:59;;;;;;;0.70;0.70;;;;;;;16.30;66.30;95445.75;4972288;28;20298;-86
2022/06/01 00:39:25;;;;;;;0.95;0.90;;;;;;;16.26;66.32;95441.97;4977808;28;20247;-86
2022/06/01 00:41:52;;;;;;;0.90;0.90;;;;;;;16.18;66.74;95448.22;4972241;28;20560;-87
2022/06/01 00:44:19;;;;;;;1.00;0.90;;;;;;;16.19;67.11;95439.44;4975274;28;20200;-86
2022/06/01 00:46:45;;;;;;;0.75;0.75;;;;;;;16.15;66.96;95444.28;4972868;28;20220;-87
2022/06/01 00:49:16;;;;;;;1.10;1.00;;;;;;;16.16;66.90;95450.28;4977162;28;20231;-86
2022/06/01 00:51:44;;;;;;;2.40;0.98;;;;;;;16.11;67.22;95445.72;4965499;28;20220;-87
2022/06/01 00:54:12;;;;;;;1.10;0.93;;;;;;;16.12;67.12;95454.31;4977111;28;20212;-86
2022/06/01 00:56:43;;;;;;;2.13;1.00;;;;;;;16.14;66.84;95449.69;4977806;28;20824;-88
2022/06/01 00:59:15;;;;;;;1.10;1.00;;;;;;;16.14;66.95;95452.28;4976814;28;20279;-87
2022/06/01 01:01:43;;;;;;;1.17;1.00;;;;;;;16.06;67.02;95452.56;4978742;28;20243;-88
2022/06/01 01:04:10;;;;;;;1.10;1.00;;;;;;;16.01;67.53;95452.38;4968591;28;20244;-88
2022/06/01 01:06:39;;;;;;;1.40;1.00;;;;;;;16.05;67.30;95450.97;4966540;28;20201;-87
2022/06/01 01:09:08;;;;;;;1.33;1.15;;;;;;;15.93;67.88;95453.47;4955117;28;20283;-86
2022/06/01 01:11:39;;;;;;;1.17;1.08;;;;;;;15.94;67.97;95449.06;4972655;28;20263;-87
2022/06/01 01:14:07;;;;;;;1.10;1.00;;;;;;;15.96;67.84;95449.66;4956847;28;20215;-88
2022/06/01 01:16:35;;;;;;;1.30;0.98;;;;;;;16.00;68.04;95453.38;4969513;28;20704;-87
2022/06/01 01:19:02;;;;;;;1.08;1.08;;;;;;;16.01;67.63;95449.78;4977081;28;20227;-86
2022/06/01 01:21:44;;;;;;;1.30;1.20;;;;;;;15.97;67.99;95449.41;4968472;28;20348;-88
2022/06/01 01:24:19;;;;;;;1.20;1.10;;;;;;;16.02;67.37;95444.38;4963445;28;20613;-86
2022/06/01 01:26:50;;;;;;;1.10;0.90;;;;;;;16.05;67.40;95456.16;4959368;28;20756;-86
2022/06/01 01:29:17;;;;;;;1.20;1.10;;;;;;;16.04;67.64;95452.75;4976643;28;20224;-86
2022/06/01 01:31:44;;;;;;;1.10;1.00;;;;;;;16.06;67.59;95450.75;4967807;28;20208;-86
2022/06/01 01:34:10;;;;;;;1.33;1.10;;;;;;;15.96;68.07;95453.06;4970284;28;20556;-87
2022/06/01 01:36:43;;;;;;;1.00;1.00;;;;;;;16.00;68.00;95456.78;4961597;28;20600;-88
2022/06/01 01:39:13;;;;;;;1.17;1.08;;;;;;;16.03;67.44;95460.75;4963513;28;20223;-87
2022/06/01 01:41:42;;;;;;;1.10;1.00;;;;;;;16.04;67.82;95462.34;4972706;28;20208;-87
2022/06/01 01:44:16;;;;;;;1.73;1.13;;;;;;;16.07;67.81;95462.72;4972204;28;20223;-87
2022/06/01 01:46:47;;;;;;;1.35;1.13;;;;;;;16.07;67.72;95461.94;4972256;28;20241;-85
2022/06/01 01:49:14;;;;;;;1.40;1.30;;;;;;;16.06;68.11;95461.13;4987161;28;20244;-86
2022/06/01 01:51:40;;;;;;;1.00;1.00;;;;;;;16.03;68.36;95455.56;4976331;28;20200;-87
2022/06/01 01:54:15;;;;;;;1.65;1.50;;;;;;;16.10;67.85;95466.69;4972653;28;20236;-87
2022/06/01 01:57:02;;;;;;;1.35;1.20;;;;;;;16.09;67.95;95463.31;4967071;28;20264;-87
2022/06/01 01:59:43;;;;;;;1.20;1.20;;;;;;;16.15;67.96;95461.66;4974067;28;20236;-87
2022/06/01 02:02:17;;;;;;;1.77;1.30;;;;;;;16.14;67.81;95471.28;4958357;29;20208;-87
2022/06/01 02:07:42;;;;;;;2.22;1.30;;;;;;;16.12;68.09;95482.88;4965991;28;20235;-88
2022/06/01 02:13:02;;;;;;;1.65;1.30;;;;;;;15.99;68.63;95478.56;4953117;28;20267;-87
2022/06/01 02:15:35;;;;;;;1.38;1.27;;;;;;;15.99;68.68;95473.38;4968753;28;20207;-88
2022/06/01 02:18:08;;;;;;;1.10;1.10;;;;;;;15.99;68.81;95469.97;4976344;28;20228;-87
2022/06/01 02:20:40;;;;;;;1.48;1.20;;;;;;;16.00;68.21;95463.78;4971993;28;20282;-87
2022/06/01 02:23:13;;;;;;;2.65;1.30;;;;;;;15.92;68.87;95470.06;4961954;28;20274;-87
2022/06/01 02:25:41;;;;;;;1.20;1.10;;;;;;;15.87;68.92;95465.50;4968597;28;20219;-88
2022/06/01 02:28:09;;;;;;;2.35;1.20;;;;;;;15.89;68.73;95463.47;4973052;28;20315;-87
2022/06/01 02:30:39;;;;;;;1.33;1.23;;;;;;;15.95;68.47;95474.03;4972061;28;20203;-86
2022/06/01 02:33:09;;;;;;;1.50;1.40;;;;;;;15.85;69.79;95464.91;4937821;29;20201;-87
2022/06/01 02:35:39;;;;;;;1.77;1.10;;;;;;;15.92;68.86;95472.66;4966622;28;20208;-86
2022/06/01 02:38:10;;;;;;;1.33;1.23;;;;;;;15.94;68.61;95469.84;4956225;28;20225;-87
2022/06/01 02:40:38;;;;;;;1.70;1.60;;;;;;;15.88;69.35;95469.69;4969134;28;20258;-86
2022/06/01 02:43:04;;;;;;;1.30;1.20;;;;;;;15.89;69.50;95467.88;4940037;29;20240;-87
2022/06/01 02:45:31;;;;;;;1.48;1.15;;;;;;;15.85;69.54;95471.91;4969620;28;20192;-87
2022/06/01 02:48:02;;;;;;;1.48;1.35;;;;;;;15.84;69.39;95458.13;4975130;28;20224;-88
2022/06/01 02:50:32;;;;;;;1.50;1.20;;;;;;;15.84;70.11;95468.50;4966402;28;20220;-87
2022/06/01 02:52:59;;;;;;;1.88;1.38;;;;;;;15.85;69.57;95467.50;4969209;28;20660;-87
2022/06/01 02:55:28;;;;;;;1.42;1.33;;;;;;;15.84;69.88;95471.09;4971384;28;20723;-85
2022/06/01 02:57:55;;;;;;;2.63;1.52;;;;;;;15.81;69.70;95465.53;4975557;28;20224;-87
2022/06/01 03:00:24;;;;;;;1.60;1.40;;;;;;;15.69;70.54;95472.41;4972652;28;20231;-87
2022/06/01 03:02:52;;;;;;;1.52;1.42;;;;;;;15.70;70.18;95472.22;4970897;28;20211;-88
2022/06/01 03:05:22;;;;;;;1.38;1.27;;;;;;;15.77;69.97;95482.56;4964189;28;20464;-88
2022/06/01 03:07:48;;;;;;;3.83;1.50;;;;;;;15.74;70.37;95472.59;4974589;28;20224;-87
2022/06/01 03:10:15;;;;;;;2.00;1.33;;;;;;;15.78;70.16;95473.72;4975998;28;20227;-88
2022/06/01 03:12:42;;;;;;;2.45;1.30;;;;;;;15.75;70.00;95474.97;4966709;28;20239;-87
2022/06/01 03:15:11;;;;;;;2.67;1.60;;;;;;;15.70;70.26;95474.00;4972888;28;20917;-87
2022/06/01 03:17:38;;;;;;;1.45;1.35;;;;;;;15.77;70.10;95477.38;4959860;28;20224;-86
2022/06/01 03:20:08;;;;;;;3.45;1.48;;;;;;;15.73;70.33;95476.19;4965107;28;20242;-86
2022/06/01 03:22:35;;;;;;;1.50;1.40;;;;;;;15.77;70.52;95479.97;4966081;28;20207;-87
2022/06/01 03:25:02;;;;;;;1.50;1.40;;;;;;;15.74;70.99;95475.97;4974928;28;20219;-88
2022/06/01 03:27:29;;;;;;;1.60;1.50;;;;;;;15.76;70.48;95479.16;4970708;28;20293;-86
2022/06/01 03:29:55;;;;;;;2.22;1.55;;;;;;;15.82;70.40;95487.88;4967934;28;20234;-88
2022/06/01 03:32:22;;;;;;;1.42;1.33;;;;;;;15.85;70.28;95487.47;4973218;28;20227;-87
2022/06/01 03:34:48;;;;;;;1.50;1.40;;;;;;;15.84;70.52;95480.69;4973509;28;20335;-87
2022/06/01 03:37:15;;;;;;;1.60;1.50;;;;;;;15.89;70.08;95491.25;4974238;28;20298;-87
2022/06/01 03:39:42;;;;;;;2.25;1.50;;;;;;;15.91;69.99;95502.22;4967333;28;20239;-88
2022/06/01 03:42:09;;;;;;;2.08;1.38;;;;;;;15.95;70.13;95500.00;4960648;28;20224;-86
2022/06/01 03:47:20;;;;;;;1.60;1.50;;;;;;;15.89;70.14;95496.44;4966620;28;20230;-88
2022/06/01 03:49:46;;;;;;;1.60;1.48;;;;;;;15.82;70.98;95496.47;4966108;28;20220;-87
2022/06/01 03:52:13;;;;;;;1.55;1.45;;;;;;;15.81;70.65;95497.47;4966446;28;20228;-87
2022/06/01 03:54:40;;;;;;;1.55;1.40;;;;;;;15.85;70.29;95490.06;4959443;28;20240;-86
2022/06/01 03:57:08;;;;;;;1.85;1.55;;;;;;;15.88;70.12;95487.84;4958215;28;20227;-88
2022/06/01 03:59:35;;;;;;;1.80;1.50;;;;;;;15.94;70.10;95490.63;4965292;28;20220;-87
2022/06/01 04:02:03;;;;;;;2.55;1.75;;;;;;;15.95;70.27;95494.81;4970607;28;20580;-86
2022/06/01 04:04:30;;;;;;;1.90;1.70;;;;;;;15.93;70.36;95495.00;4967638;28;20272;-86
2022/06/01 04:06:57;;;;;;;1.55;1.45;;;;;;;15.88;71.32;95505.22;4977036;28;20228;-87
2022/06/01 04:09:23;;;;;;;2.97;1.67;;;;;;;15.88;70.48;95505.22;4978632;28;20587;-87
2022/06/01 04:11:51;;;;;;;1.65;1.50;;;;;;;15.86;71.18;95504.66;4968291;28;20208;-87
2022/06/01 04:14:19;;;;;;;2.50;1.85;;;;;;;15.89;71.38;95501.63;4977664;28;20263;-87
2022/06/01 04:16:46;;;;;;;2.90;1.67;;;;;;;15.91;71.15;95515.19;4967276;28;20211;-87
2022/06/01 04:19:13;;;;;;;2.28;1.70;;;;;;;15.96;70.92;95512.78;4977281;28;20266;-87
2022/06/01 04:21:41;;;;;;;1.83;1.73;;;;;;;16.02;70.88;95518.91;4968788;28;20263;-88
2022/06/01 04:24:13;;;;;;;2.25;1.77;;;;;;;16.09;70.63;95517.06;4974647;28;20215;-87
2022/06/01 04:26:40;;;;;;;1.70;1.60;;;;;;;16.16;69.84;95523.00;4963407;28;20217;-87
2022/06/01 04:29:06;;;;;;;8.05;3.85;;;;;;;16.18;71.21;95523.56;4978917;28;20224;-87
2022/06/01 04:31:35;;;;;;;3.63;2.15;;;;;;;16.26;70.16;95525.09;4979134;28;20204;-87
2022/06/01 04:34:02;;;;;;;4.00;2.10;;;;;;;16.19;70.77;95525.94;4979834;28;20204;-87
2022/06/01 04:36:29;;;;;;;2.30;1.77;;;;;;;16.21;70.71;95526.53;4979352;28;20208;-86
2022/06/01 04:38:57;;;;;;;2.90;1.77;;;;;;;16.24;70.56;95514.94;4978642;28;20259;-86
2022/06/01 04:41:24;;;;;;;2.03;1.70;;;;;;;16.32;70.77;95521.66;4979046;28;20296;-88
2022/06/01 04:43:51;;;;;;;10.07;9.00;;;;;;;16.40;70.22;95523.97;4979065;28;20208;-88
2022/06/01 04:46:17;;;;;;;16.58;14.15;;;;;;;16.47;69.55;95529.94;4978873;28;20204;-87
2022/06/01 04:48:46;;;;;;;5.82;4.78;;;;;;;16.60;68.55;95529.78;4978441;28;20242;-87
2022/06/01 04:51:12;;;;;;;3.10;2.03;;;;;;;16.69;67.66;95525.94;4976349;28;20204;-87
2022/06/01 04:53:42;;;;;;;2.20;1.95;;;;;;;16.66;68.05;95525.56;4959457;29;20556;-88
2022/06/01 04:56:10;;;;;;;2.38;1.90;;;;;;;16.72;67.86;95517.72;4959457;29;20219;-87
2022/06/01 04:58:37;;;;;;;2.33;1.90;;;;;;;16.72;67.99;95522.91;4958899;28;20316;-87
2022/06/01 05:01:03;;;;;;;2.10;1.88;;;;;;;16.75;68.31;95524.25;4959751;29;20212;-87
2022/06/01 05:03:30;;;;;;;1.80;1.70;;;;;;;16.75;68.00;95524.25;4960859;29;20592;-87
2022/06/01 05:05:58;;;;;;;1.80;1.70;;;;;;;16.77;67.58;95528.25;4959310;28;20205;-87
2022/06/01 05:08:24;;;;;;;4.05;1.73;;;;;;;16.91;67.61;95526.31;4958594;28;20233;-86
2022/06/01 05:10:50;;;;;;;3.42;1.73;;;;;;;17.02;67.27;95525.56;4959419;28;20205;-87
2022/06/01 05:13:19;;;;;;;2.08;1.85;;;;;;;17.12;66.75;95532.88;4959550;29;20205;-87
2022/06/01 05:15:47;;;;;;;2.65;1.70;;;;;;;17.08;66.39;95529.13;4958105;28;20330;-87
2022/06/01 05:18:14;;;;;;;2.40;1.90;;;;;;;17.22;66.33;95520.13;4959238;28;20280;-88
2022/06/01 05:20:40;;;;;;;2.95;1.80;;;;;;;17.30;65.79;95527.66;4959127;29;20555;-86
2022/06/01 05:23:08;;;;;;;1.75;1.52;;;;;;;17.33;65.87;95521.97;4960581;28;20545;-87
2022/06/01 05:25:35;;;;;;;2.65;2.45;;;;;;;17.45;65.51;95524.66;4959667;29;20576;-87
2022/06/01 05:28:02;;;;;;;2.80;2.60;;;;;;;17.47;64.85;95528.63;4958827;28;20315;-87
2022/06/01 05:30:28;;;;;;;2.45;1.80;;;;;;;17.52;65.14;95528.75;4959117;28;20205;-88
2022/06/01 05:32:54;;;;;;;1.80;1.70;;;;;;;17.62;64.79;95530.84;4960387;29;20934;-88
2022/06/01 05:35:21;;;;;;;1.67;1.58;;;;;;;17.66;64.64;95523.41;4960606;29;20213;-86
2022/06/01 05:37:47;;;;;;;1.60;1.50;;;;;;;17.68;64.57;95527.38;4962596;28;20229;-87
2022/06/01 05:40:15;;;;;;;2.83;1.55;;;;;;;17.76;64.69;95531.47;4960936;28;20239;-87
2022/06/01 05:42:42;;;;;;;1.67;1.45;;;;;;;17.80;64.35;95528.19;4959904;28;20212;-87
2022/06/01 05:45:09;;;;;;;3.25;1.90;;;;;;;17.84;64.68;95531.16;4960002;29;20239;-86
2022/06/01 05:47:36;;;;;;;2.30;1.58;;;;;;;17.84;64.44;95533.75;4959711;28;20792;-88
2022/06/01 05:50:03;;;;;;;1.92;1.60;;;;;;;17.76;63.26;95537.47;4959325;28;20237;-87
2022/06/01 05:52:30;;;;;;;1.80;1.48;;;;;;;17.77;63.39;95533.06;4959643;29;20200;-85
2022/06/01 05:54:57;;;;;;;2.55;1.80;;;;;;;17.86;63.46;95532.53;4959380;29;20208;-87
2022/06/01 05:57:24;;;;;;;1.88;1.60;;;;;;;17.93;63.05;95529.81;4959537;28;20237;-87
2022/06/01 05:59:51;;;;;;;1.50;1.40;;;;;;;18.00;63.21;95533.13;4958637;28;20232;-87
2022/06/01 06:02:17;;;;;;;2.92;1.60;;;;;;;18.03;63.12;95535.28;4958846;29;20248;-86
2022/06/01 06:04:43;;;;;;;2.10;1.50;;;;;;;18.07;62.18;95533.03;4959364;29;20205;-88
2022/06/01 06:07:09;;;;;;;2.65;1.58;;;;;;;18.15;62.71;95530.06;4959200;28;20252;-87
2022/06/01 06:09:35;;;;;;;1.63;1.52;;;;;;;18.25;62.67;95530.31;4958449;28;20241;-87
2022/06/01 06:12:02;;;;;;;3.15;1.75;;;;;;;18.18;61.90;95527.81;4959459;29;20205;-87
2022/06/01 06:14:30;;;;;;;2.83;1.50;;;;;;;18.16;61.02;95527.25;4959780;29;20208;-87
2022/06/01 06:16:56;;;;;;;1.67;1.58;;;;;;;18.23;61.94;95533.16;4959078;28;20469;-87
2022/06/01 06:19:23;;;;;;;1.80;1.65;;;;;;;18.26;60.92;95535.31;4959031;28;20299;-86
2022/06/01 06:21:49;;;;;;;2.90;1.75;;;;;;;18.27;61.43;95534.28;4959342;29;20256;-86
2022/06/01 06:24:18;;;;;;;3.15;1.50;;;;;;;18.30;61.02;95531.22;4960071;28;20212;-85
2022/06/01 06:26:45;;;;;;;1.65;1.45;;;;;;;18.48;61.38;95534.72;4958777;28;20703;-87
2022/06/01 06:29:14;;;;;;;3.30;1.70;;;;;;;18.46;60.47;95539.41;4959278;28;20236;-87
2022/06/01 06:31:42;;;;;;;2.38;1.58;;;;;;;18.54;60.34;95536.44;4958548;29;20216;-87
2022/06/01 06:34:09;;;;;;;1.70;1.60;;;;;;;18.57;59.93;95541.22;4958273;28;20649;-87
2022/06/01 06:36:35;;;;;;;2.55;1.80;;;;;;;18.59;60.45;95531.38;4958745;28;20202;-87
2022/06/01 06:39:02;;;;;;;1.88;1.70;;;;;;;18.53;60.37;95532.25;4958301;28;20677;-86
2022/06/01 06:41:28;;;;;;;2.65;1.70;;;;;;;18.57;59.87;95531.56;4958722;28;20632;-87
2022/06/01 06:43:55;;;;;;;3.13;1.70;;;;;;;18.61;59.91;95534.56;4958850;29;20267;-87
2022/06/01 06:46:23;;;;;;;2.20;1.90;;;;;;;18.56;59.35;95532.59;4959216;29;20211;-86
2022/06/01 06:48:52;;;;;;;2.00;1.90;;;;;;;18.47;59.06;95541.75;4959158;28;20747;-88
2022/06/01 06:51:20;;;;;;;4.90;1.90;;;;;;;18.56;59.17;95539.63;4958674;29;20204;-87
2022/06/01 06:53:47;;;;;;;2.53;1.90;;;;;;;18.66;58.95;95539.91;4958705;29;20676;-86
2022/06/01 06:56:16;;;;;;;2.20;1.90;;;;;;;18.76;59.12;95537.50;4959241;29;20232;-85
2022/06/01 06:58:43;;;;;;;1.90;1.70;;;;;;;18.78;58.69;95537.25;4957949;28;20720;-86
2022/06/01 07:01:09;;;;;;;1.90;1.70;;;;;;;18.86;58.48;95531.69;4958882;29;20205;-88
2022/06/01 07:03:36;;;;;;;3.25;1.67;;;;;;;18.88;58.36;95533.03;4959239;29;20696;-87
2022/06/01 07:06:11;;;;;;;2.03;1.77;;;;;;;18.90;58.09;95533.59;4960469;29;20212;-86
2022/06/01 07:08:39;;;;;;;2.72;1.52;;;;;;;18.92;58.57;95534.16;4959346;28;20232;-87
2022/06/01 07:11:05;;;;;;;2.97;2.00;;;;;;;18.94;58.37;95526.91;4960036;29;20205;-87
2022/06/01 07:13:32;;;;;;;3.90;1.88;;;;;;;18.93;56.83;95533.16;4958753;29;20208;-87
2022/06/01 07:16:04;;;;;;;2.60;2.40;;;;;;;18.97;56.94;95529.06;4958830;29;20291;-88
2022/06/01 07:18:30;;;;;;;3.22;1.70;;;;;;;19.04;56.52;95523.72;4958389;28;20783;-88
2022/06/01 07:20:58;;;;;;;3.30;1.70;;;;;;;19.06;55.51;95520.88;4958011;29;20204;-86
2022/06/01 07:23:26;;;;;;;2.42;1.75;;;;;;;19.08;55.91;95526.66;4958501;29;20239;-87
2022/06/01 07:25:53;;;;;;;2.33;1.70;;;;;;;19.16;56.31;95521.88;4958812;29;20241;-87
2022/06/01 07:28:21;;;;;;;2.17;1.98;;;;;;;19.20;56.10;95524.81;4958454;28;20237;-86
2022/06/01 07:30:48;;;;;;;2.20;2.00;;;;;;;19.28;55.86;95527.06;4958711;29;20208;-87
2022/06/01 07:33:14;;;;;;;2.28;1.90;;;;;;;19.37;55.97;95520.44;4958968;28;20212;-88
2022/06/01 07:35:40;;;;;;;2.97;1.92;;;;;;;19.52;55.84;95517.34;4958178;29;20211;-87
2022/06/01 07:43:53;;;;;;;2.58;1.73;;;;;;;19.92;53.47;95510.22;4941926;29;20249;-87
2022/06/01 07:46:20;;;;;;;2.25;1.90;;;;;;;19.99;52.86;95517.91;4959240;28;20205;-85
2022/06/01 07:48:47;;;;;;;3.20;1.77;;;;;;;20.05;52.86;95519.56;4974504;28;20240;-86
2022/06/01 07:51:13;;;;;;;2.85;1.60;;;;;;;20.21;52.95;95512.75;4966520;29;20232;-86
2022/06/01 07:53:40;;;;;;;2.40;1.67;;;;;;;20.27;52.38;95515.22;4964789;29;20697;-87
2022/06/01 07:56:08;;;;;;;3.13;1.70;;;;;;;20.30;49.33;95509.50;4964637;29;20213;-86
2022/06/01 07:58:37;;;;;;;3.40;1.80;;;;;;;20.39;49.79;95511.75;4964302;28;20248;-85
2022/06/01 08:01:03;;;;;;;2.30;1.65;;;;;;;20.49;48.89;95515.31;4964630;29;20211;-87
2022/06/01 08:03:30;;;;;;;1.77;1.50;;;;;;;20.45;49.54;95508.97;4964484;28;20203;-87
2022/06/01 08:05:56;;;;;;;2.13;1.60;;;;;;;20.48;47.57;95508.50;4964477;28;20213;-87
2022/06/01 08:08:23;;;;;;;1.77;1.38;;;;;;;20.61;48.25;95505.53;4963886;28;20224;-87
2022/06/01 08:10:50;;;;;;;2.65;1.60;;;;;;;20.80;48.71;95508.66;4965062;28;20208;-87
2022/06/01 08:13:17;;;;;;;2.75;1.73;;;;;;;20.79;48.02;95512.31;4964526;29;20209;-87
2022/06/01 08:15:45;;;;;;;5.45;1.95;;;;;;;20.91;46.53;95507.78;4962695;29;20212;-88
2022/06/01 08:18:15;;;;;;;2.00;1.45;;;;;;;20.94;45.02;95502.06;4962899;28;20224;-87
2022/06/01 08:20:42;;;;;;;2.72;1.60;;;;;;;21.00;45.05;95495.03;4963286;28;20291;-87
2022/06/01 08:23:08;;;;;;;1.80;1.67;;;;;;;21.15;45.10;95495.22;4963288;29;20632;-87
2022/06/01 08:25:35;;;;;;;1.75;1.63;;;;;;;21.34;45.03;95493.91;4963194;29;20208;-87
2022/06/01 08:28:03;;;;;;;2.10;1.65;;;;;;;21.46;45.13;95500.81;4962850;28;20291;-87
2022/06/01 08:30:33;;;;;;;3.45;1.60;;;;;;;21.69;45.30;95495.28;4962566;29;20209;-87
2022/06/01 08:33:00;;;;;;;5.38;2.00;;;;;;;21.81;44.71;95495.13;4962637;28;20205;-87
2022/06/01 08:35:29;;;;;;;2.75;1.40;;;;;;;21.63;43.53;95496.28;4963369;28;20208;-88
2022/06/01 08:37:56;;;;;;;2.65;1.58;;;;;;;21.79;42.00;95494.59;4962446;28;20225;-87
2022/06/01 08:40:26;;;;;;;2.58;1.70;;;;;;;21.95;42.91;95497.09;4961460;28;20256;-87
2022/06/01 08:43:00;;;;;;;2.78;1.50;;;;;;;22.18;42.22;95500.44;4963402;28;20353;-86
2022/06/01 08:45:27;;;;;;;2.05;1.40;;;;;;;22.37;41.31;95506.88;4963124;29;20553;-88
2022/06/01 08:47:56;;;;;;;1.60;1.50;;;;;;;22.53;40.23;95505.13;4963618;28;20225;-85
2022/06/01 08:50:27;;;;;;;2.25;1.40;;;;;;;22.48;38.26;95502.50;4963254;28;20252;-85
2022/06/01 08:52:55;;;;;;;3.15;1.30;;;;;;;22.40;37.56;95507.16;4963564;29;20208;-87
2022/06/01 08:55:21;;;;;;;2.03;1.55;;;;;;;22.48;38.32;95511.16;4964120;29;20244;-86
2022/06/01 08:57:56;;;;;;;1.75;1.40;;;;;;;22.57;38.11;95506.22;4964102;28;20287;-87
2022/06/01 09:00:24;;;;;;;1.65;1.55;;;;;;;22.75;38.97;95501.34;4963797;28;20307;-87
2022/06/01 09:03:03;;;;;;;1.73;1.58;;;;;;;22.86;38.77;95490.94;4964664;29;20228;-87
2022/06/01 09:05:35;;;;;;;1.60;1.50;;;;;;;22.81;38.48;95493.53;4945188;29;20224;-88
2022/06/01 09:08:08;;;;;;;3.45;1.90;;;;;;;22.89;38.68;95488.59;4948012;29;20233;-85
2022/06/01 09:10:44;;;;;;;2.60;1.42;;;;;;;22.93;38.53;95491.47;4952997;29;20205;-86
2022/06/01 09:13:14;;;;;;;3.08;1.50;;;;;;;22.91;38.19;95489.09;4949706;29;20213;-87
2022/06/01 09:15:46;;;;;;;3.40;1.50;;;;;;;23.03;38.05;95486.28;4945364;29;20209;-87
2022/06/01 09:18:17;;;;;;;3.63;1.70;;;;;;;23.14;38.13;95484.47;4950855;29;20237;-85
2022/06/01 09:23:28;;;;;;;2.00;1.35;;;;;;;23.07;37.90;95480.25;4955454;29;20204;-86
2022/06/01 09:25:57;;;;;;;3.50;1.48;;;;;;;23.02;38.97;95474.19;4955339;29;20205;-86
2022/06/01 09:28:25;;;;;;;4.07;1.60;;;;;;;23.17;38.25;95484.75;4948630;29;20641;-87
2022/06/01 09:30:56;;;;;;;1.50;1.30;;;;;;;23.45;37.87;95488.78;4948151;29;20205;-87
2022/06/01 09:33:27;;;;;;;1.40;1.30;;;;;;;23.31;38.37;95485.03;4952107;29;20201;-86
2022/06/01 09:36:03;;;;;;;3.40;1.33;;;;;;;23.22;38.31;95489.22;4952287;29;20206;-85
2022/06/01 09:38:40;;;;;;;2.10;1.42;;;;;;;23.02;38.31;95489.94;4953835;29;20241;-85
2022/06/01 09:41:10;;;;;;;1.88;1.33;;;;;;;22.81;39.26;95489.06;4946554;29;20204;-86
2022/06/01 09:43:40;;;;;;;1.75;1.45;;;;;;;22.70;39.28;95488.19;4942446;29;20264;-87
2022/06/01 09:46:08;;;;;;;3.10;1.40;;;;;;;22.57;39.31;95487.84;4941795;29;20206;-87
2022/06/01 09:48:39;;;;;;;3.60;1.45;;;;;;;22.37;39.80;95491.94;4940473;29;20237;-86
2022/06/01 09:51:14;;;;;;;1.95;1.50;;;;;;;22.20;40.47;95493.91;4941385;29;20202;-88
2022/06/01 09:53:43;;;;;;;5.40;1.67;;;;;;;22.01;40.14;95488.25;4959087;29;20219;-87
2022/06/01 09:56:10;;;;;;;3.10;1.45;;;;;;;21.97;40.70;95484.50;4960111;29;20303;-87
2022/06/01 10:06:58;;;;;;;2.90;1.58;;;;;;;21.85;40.64;95490.97;4959489;28;20368;-85
2022/06/01 10:09:27;;;;;;;1.67;1.42;;;;;;;21.73;40.93;95498.22;4958839;28;20233;-87
2022/06/01 10:11:55;;;;;;;2.75;1.52;;;;;;;21.69;41.36;95490.84;4958831;29;20204;-87
2022/06/01 10:14:26;;;;;;;3.55;1.55;;;;;;;21.69;41.55;95485.59;4959265;29;20204;-87
2022/06/01 10:17:17;;;;;;;2.13;1.50;;;;;;;21.70;42.95;95492.44;4960658;28;20293;-88
2022/06/01 10:19:50;;;;;;;1.90;1.60;;;;;;;21.70;42.13;95496.88;4957970;28;20235;-87
2022/06/01 10:22:24;;;;;;;1.65;1.50;;;;;;;21.60;42.19;95504.63;4958380;28;20201;-87
2022/06/01 10:24:55;;;;;;;1.55;1.45;;;;;;;21.57;43.28;95489.41;4958150;29;20205;-88
2022/06/01 10:27:30;;;;;;;1.75;1.55;;;;;;;21.54;42.87;95500.38;4958119;28;20609;-86
2022/06/01 10:30:14;;;;;;;2.42;1.50;;;;;;;21.53;42.34;95491.75;4957832;28;20271;-86
2022/06/01 10:32:47;;;;;;;4.43;1.73;;;;;;;21.49;41.75;95493.28;4957285;29;20208;-86
2022/06/01 10:35:27;;;;;;;1.77;1.58;;;;;;;21.49;41.70;95501.13;4957918;29;20271;-87
2022/06/01 10:38:04;;;;;;;3.92;1.40;;;;;;;21.43;41.21;95504.72;4958064;28;20220;-85
2022/06/01 10:40:39;;;;;;;3.13;1.65;;;;;;;21.43;41.54;95494.25;4957431;28;20785;-87
2022/06/01 10:43:19;;;;;;;1.48;1.23;;;;;;;21.44;41.74;95508.13;4958003;28;20207;-87
2022/06/01 10:45:49;;;;;;;1.30;1.20;;;;;;;21.40;41.65;95499.97;4957710;28;20212;-87
2022/06/01 10:48:22;;;;;;;2.85;1.52;;;;;;;21.38;41.66;95505.44;4956340;28;20712;-85
2022/06/01 10:50:55;;;;;;;1.65;1.40;;;;;;;21.46;41.78;95503.44;4956646;29;20260;-86
2022/06/01 10:53:33;;;;;;;1.70;1.33;;;;;;;21.49;41.85;95502.94;4956792;29;20588;-86
2022/06/01 10:56:00;;;;;;;1.55;1.45;;;;;;;21.53;42.89;95506.66;4956104;29;20226;-86
2022/06/01 10:58:27;;;;;;;1.83;1.40;;;;;;;21.75;40.98;95490.88;4953654;28;20310;-86
2022/06/01 11:01:02;;;;;;;2.67;1.30;;;;;;;21.90;39.60;95496.28;4953880;29;20300;-86
2022/06/01 11:03:50;;;;;;;3.38;1.42;;;;;;;21.93;39.95;95496.56;4954320;28;20200;-86
2022/06/01 11:06:46;;;;;;;1.88;1.60;;;;;;;22.39;39.76;95505.59;4954949;29;20260;-85
2022/06/01 11:09:22;;;;;;;1.52;1.30;;;;;;;22.70;38.86;95498.72;4954541;28;20229;-85
2022/06/01 11:12:02;;;;;;;3.00;1.45;;;;;;;22.99;38.82;95493.09;4954300;28;20231;-85
2022/06/01 11:14:45;;;;;;;1.48;1.38;;;;;;;23.26;39.30;95483.22;4956463;29;20684;-85
2022/06/01 11:17:23;;;;;;;1.50;1.40;;;;;;;23.24;38.34;95485.31;4960101;28;20272;-87
2022/06/01 11:20:03;;;;;;;1.67;1.55;;;;;;;23.23;38.24;95482.94;4958840;28;20642;-87
2022/06/01 11:22:52;;;;;;;1.40;1.30;;;;;;;23.17;38.25;95484.75;4960010;29;20572;-87
2022/06/01 11:25:22;;;;;;;1.98;1.50;;;;;;;22.97;39.24;95493.34;4959688;29;20612;-87
2022/06/01 11:28:08;;;;;;;2.08;1.40;;;;;;;23.01;38.85;95477.84;4958757;28;20731;-88
2022/06/01 11:30:41;;;;;;;1.60;1.50;;;;;;;22.99;39.37;95479.94;4958276;28;20275;-87
2022/06/01 11:33:15;;;;;;;4.50;1.40;;;;;;;23.07;38.07;95479.47;4958279;29;20673;-88
2022/06/01 11:35:46;;;;;;;3.08;1.50;;;;;;;23.28;37.29;95475.06;4958655;29;20236;-88
2022/06/01 11:38:18;;;;;;;1.50;1.40;;;;;;;23.54;37.42;95468.03;4958132;28;20279;-86
2022/06/01 11:40:49;;;;;;;1.35;1.25;;;;;;;23.60;37.75;95469.66;4958186;28;20291;-87
2022/06/01 11:43:28;;;;;;;2.40;1.23;;;;;;;23.75;37.26;95467.81;4958325;29;20212;-86
2022/06/01 11:45:57;;;;;;;2.22;1.50;;;;;;;24.14;36.81;95458.59;4958277;29;20208;-86
2022/06/01 11:48:29;;;;;;;2.75;1.70;;;;;;;24.25;35.18;95460.19;4957574;28;20258;-87
2022/06/01 11:51:11;;;;;;;1.60;1.40;;;;;;;24.42;34.58;95461.50;4957930;29;20208;-86
2022/06/01 11:53:46;;;;;;;1.75;1.50;;;;;;;24.54;34.33;95457.78;4938728;29;20208;-88
2022/06/01 11:56:22;;;;;;;1.45;1.33;;;;;;;24.66;34.27;95463.53;4939043;29;20233;-86
2022/06/01 11:59:05;;;;;;;5.60;1.50;;;;;;;24.71;34.36;95472.22;4938359;29;20244;-86
2022/06/01 12:01:45;;;;;;;3.20;1.40;;;;;;;24.73;33.65;95467.47;4938366;29;20232;-86
2022/06/01 12:04:18;;;;;;;1.95;1.30;;;;;;;25.02;34.53;95443.16;4948646;29;20201;-87
2022/06/01 12:06:55;;;;;;;2.75;1.40;;;;;;;24.82;34.66;95451.94;4956704;28;20263;-86
2022/06/01 12:09:47;;;;;;;2.00;1.40;;;;;;;24.64;34.39;95453.28;4956742;28;20267;-87